createdAt,value
2018-04-25T00:00:39.369Z,38.67
2018-04-25T00:04:42.027Z,38.07
2018-04-25T00:08:44.778Z,37.83
2018-04-25T00:12:47.392Z,32.20
2018-04-25T00:16:50.053Z,36.53
2018-04-25T00:20:52.691Z,36.03
2018-04-25T00:24:56.107Z,34.63
2018-04-25T00:28:59.584Z,32.07
2018-04-25T00:33:02.248Z,32.90
2018-04-25T00:37:04.949Z,31.77
2018-04-25T00:41:07.612Z,28.60
2018-04-25T00:45:10.260Z,31.43
2018-04-25T00:49:12.921Z,30.17
2018-04-25T00:53:15.579Z,27.90
2018-04-25T00:57:18.220Z,29.63
2018-04-25T01:01:20.860Z,25.53
2018-04-25T01:05:23.508Z,29.10
2018-04-25T01:09:26.917Z,26.83
2018-04-25T01:13:30.305Z,26.40
2018-04-25T01:17:32.966Z,29.40
2018-04-25T01:21:35.738Z,27.60
2018-04-25T01:25:39.175Z,29.73
2018-04-25T01:29:42.558Z,25.70
2018-04-25T01:33:46.972Z,32.23
2018-04-25T01:37:51.456Z,30.70
2018-04-25T01:41:54.101Z,31.77
2018-04-25T01:50:41.980Z,34.53
2018-04-25T01:54:56.488Z,28.40
2018-04-25T01:59:11.068Z,33.70
2018-04-25T02:03:13.999Z,35.97
2018-04-25T02:07:17.418Z,34.90
2018-04-25T02:11:20.081Z,28.60
2018-04-25T02:15:22.693Z,32.87
2018-04-25T02:19:25.347Z,37.37
2018-04-25T02:23:28.753Z,28.23
2018-04-25T02:27:31.421Z,26.40
2018-04-25T02:31:34.153Z,28.93
2018-04-25T02:35:36.782Z,31.90
2018-04-25T02:39:39.428Z,29.07
2018-04-25T02:43:42.084Z,28.33
2018-04-25T02:47:45.501Z,27.97
2018-04-25T02:51:48.930Z,25.60
2018-04-25T02:55:51.546Z,20.67
2018-04-25T02:59:54.303Z,18.73
2018-04-25T03:03:56.959Z,20.00
2018-04-25T03:07:59.660Z,24.60
2018-04-25T03:12:03.036Z,17.17
2018-04-25T03:16:05.744Z,19.17
2018-04-25T03:20:08.424Z,20.67
2018-04-25T03:24:11.078Z,17.37
2018-04-25T03:28:13.724Z,20.60
2018-04-25T03:32:17.100Z,17.37
2018-04-25T03:36:19.745Z,21.03
2018-04-25T03:40:22.391Z,18.03
2018-04-25T03:44:25.808Z,17.90
2018-04-25T03:48:29.239Z,18.23
2018-04-25T03:52:31.899Z,35.33
2018-04-25T03:56:35.317Z,19.57
2018-04-25T04:00:38.784Z,23.87
2018-04-25T04:04:41.431Z,16.53
2018-04-25T04:08:44.077Z,15.40
2018-04-25T04:12:46.686Z,15.03
2018-04-25T04:16:50.105Z,16.57
2018-04-25T04:20:52.755Z,17.20
2018-04-25T04:24:55.537Z,17.43
2018-04-25T04:28:58.192Z,15.40
2018-04-25T04:33:00.810Z,13.30
2018-04-25T04:37:03.460Z,16.20
2018-04-25T04:41:06.111Z,14.67
2018-04-25T04:45:09.531Z,15.10
2018-04-25T04:49:12.899Z,11.57
2018-04-25T04:53:15.540Z,10.57
2018-04-25T04:57:18.179Z,12.00
2018-04-25T05:01:20.829Z,11.33
2018-04-25T05:05:23.483Z,11.97
2018-04-25T05:09:26.858Z,15.67
2018-04-25T05:13:29.510Z,12.70
2018-04-25T05:17:32.153Z,15.57
2018-04-25T05:21:34.804Z,9.40
2018-04-25T05:25:37.508Z,12.43
2018-04-25T05:29:40.163Z,10.23
2018-04-25T05:33:42.819Z,12.67
2018-04-25T05:37:46.219Z,11.03
2018-04-25T05:41:48.862Z,12.37
2018-04-25T05:45:51.467Z,6.90
2018-04-25T05:49:54.106Z,8.80
2018-04-25T05:53:56.808Z,8.90
2018-04-25T05:57:59.524Z,8.10
2018-04-25T06:02:02.881Z,9.00
2018-04-25T06:06:06.252Z,8.63
2018-04-25T06:10:08.904Z,9.53
2018-04-25T06:14:11.548Z,9.73
2018-04-25T06:18:14.248Z,9.67
2018-04-25T06:22:17.664Z,10.93
2018-04-25T06:26:20.277Z,10.13
2018-04-25T06:30:22.920Z,6.63
2018-04-25T06:34:26.324Z,10.70
2018-04-25T06:38:29.023Z,8.50
2018-04-25T06:42:32.431Z,7.90
2018-04-25T06:46:35.796Z,8.33
2018-04-25T06:50:38.438Z,5.00
2018-04-25T06:54:41.079Z,5.27
2018-04-25T06:58:43.718Z,4.43
2018-04-25T07:02:46.383Z,4.73
2018-04-25T07:06:49.757Z,3.53
2018-04-25T07:10:52.397Z,4.10
2018-04-25T07:14:55.040Z,3.17
2018-04-25T07:18:57.692Z,4.37
2018-04-25T07:23:00.292Z,3.40
2018-04-25T07:27:02.932Z,3.83
2018-04-25T07:31:06.346Z,2.47
2018-04-25T07:35:09.761Z,3.90
2018-04-25T07:39:12.463Z,3.10
2018-04-25T07:43:15.072Z,1.90
2018-04-25T07:47:17.715Z,1.90
2018-04-25T07:51:21.119Z,3.60
2018-04-25T07:55:24.577Z,3.60
2018-04-25T07:59:27.227Z,3.30
2018-04-25T08:03:29.837Z,1.77
2018-04-25T08:07:32.483Z,2.43
2018-04-25T08:11:35.887Z,1.67
2018-04-25T08:15:51.168Z,2.63
2018-04-25T08:24:29.609Z,3.30
2018-04-25T08:28:32.252Z,1.87
2018-04-25T08:32:34.896Z,1.80
2018-04-25T08:36:37.571Z,4.33
2018-04-25T08:40:40.212Z,2.07
2018-04-25T08:44:43.024Z,2.70
2018-04-25T08:48:46.385Z,2.77
2018-04-25T08:52:49.801Z,5.50
2018-04-25T08:56:53.211Z,9.23
2018-04-25T09:00:55.815Z,3.77
2018-04-25T09:04:58.452Z,5.07
2018-04-25T09:09:01.092Z,3.83
2018-04-25T09:13:03.743Z,5.00
2018-04-25T09:17:07.153Z,5.20
2018-04-25T09:21:10.519Z,5.43
2018-04-25T09:25:13.160Z,6.73
2018-04-25T09:29:15.801Z,4.93
2018-04-25T09:33:18.441Z,2.00
2018-04-25T09:37:21.076Z,2.20
2018-04-25T09:41:24.499Z,3.60
2018-04-25T09:45:27.152Z,4.10
2018-04-25T09:49:29.788Z,3.40
2018-04-25T09:53:33.187Z,4.50
2018-04-25T09:57:36.194Z,1.20
2018-04-25T10:01:39.402Z,0.77
2018-04-25T10:05:42.849Z,3.10
2018-04-25T10:09:45.505Z,1.47
2018-04-25T10:13:48.921Z,4.60
2018-04-25T10:17:51.564Z,2.00
2018-04-25T10:21:54.163Z,2.00
2018-04-25T10:25:56.807Z,1.10
2018-04-25T10:30:06.833Z,2.07
2018-04-25T10:34:09.940Z,1.57
2018-04-25T10:38:12.579Z,1.87
2018-04-25T10:42:15.395Z,3.70
2018-04-25T10:46:18.039Z,1.40
2018-04-25T10:50:21.555Z,4.30
2018-04-25T10:54:24.206Z,3.83
2018-04-25T10:58:26.840Z,2.77
2018-04-25T11:02:29.527Z,4.17
2018-04-25T11:06:32.136Z,0.93
2018-04-25T11:10:34.784Z,3.17
2018-04-25T11:14:37.492Z,1.30
2018-04-25T11:18:40.132Z,2.83
2018-04-25T11:22:43.493Z,2.43
2018-04-25T11:26:46.169Z,2.00
2018-04-25T11:30:48.810Z,3.60
2018-04-25T11:34:52.214Z,1.63
2018-04-25T11:38:55.639Z,2.33
2018-04-25T11:42:58.257Z,3.63
2018-04-25T11:47:00.895Z,2.50
2018-04-25T11:51:04.308Z,1.33
2018-04-25T11:55:06.971Z,0.73
2018-04-25T11:59:09.644Z,2.13
2018-04-25T12:03:13.047Z,3.37
2018-04-25T12:07:15.744Z,3.13
2018-04-25T12:11:18.443Z,1.50
2018-04-25T12:15:21.144Z,3.20
2018-04-25T12:19:24.567Z,5.50
2018-04-25T12:23:27.224Z,1.43
2018-04-25T12:27:29.863Z,1.83
2018-04-25T12:31:32.537Z,4.80
2018-04-25T12:35:35.182Z,1.53
2018-04-25T12:39:37.823Z,2.33
2018-04-25T12:43:40.429Z,2.13
2018-04-25T12:47:43.115Z,1.70
2018-04-25T12:51:45.762Z,2.90
2018-04-25T12:55:49.163Z,3.57
2018-04-25T12:59:52.563Z,3.10
2018-04-25T13:03:55.163Z,3.87
2018-04-25T13:07:58.565Z,2.70
2018-04-25T13:12:01.980Z,2.50
2018-04-25T13:16:05.387Z,3.30
2018-04-25T13:20:08.846Z,4.60
2018-04-25T13:24:11.445Z,4.10
2018-04-25T13:28:14.140Z,2.30
2018-04-25T13:32:16.779Z,1.97
2018-04-25T13:36:19.471Z,2.63
2018-04-25T13:40:22.111Z,3.93
2018-04-25T13:44:24.768Z,2.00
2018-04-25T13:48:27.412Z,3.30
2018-04-25T13:52:30.857Z,4.17
2018-04-25T13:56:33.499Z,2.83
2018-04-25T14:00:36.968Z,3.10
2018-04-25T14:04:39.618Z,3.33
2018-04-25T14:08:42.251Z,2.23
2018-04-25T14:12:44.948Z,3.60
2018-04-25T14:16:47.590Z,2.80
2018-04-25T14:20:50.231Z,2.77
2018-04-25T14:24:52.901Z,3.63
2018-04-25T14:28:55.539Z,3.23
2018-04-25T14:32:58.940Z,3.33
2018-04-25T14:37:02.360Z,2.17
2018-04-25T14:41:04.999Z,4.40
2018-04-25T14:45:07.652Z,4.93
2018-04-25T14:49:10.295Z,7.33
2018-04-25T14:53:12.931Z,2.97
2018-04-25T14:57:15.623Z,3.10
2018-04-25T15:01:18.262Z,5.07
2018-04-25T15:05:20.878Z,3.57
2018-04-25T15:09:23.516Z,3.53
2018-04-25T15:13:26.160Z,5.83
2018-04-25T15:17:28.815Z,3.57
2018-04-25T15:21:31.460Z,5.67
2018-04-25T15:25:34.159Z,4.87
2018-04-25T15:29:36.840Z,4.50
2018-04-25T15:33:39.490Z,5.07
2018-04-25T15:37:42.140Z,3.63
2018-04-25T15:41:44.845Z,3.50
2018-04-25T15:45:47.506Z,4.27
2018-04-25T15:49:50.256Z,4.13
2018-04-25T15:53:52.903Z,4.10
2018-04-25T15:57:55.551Z,5.17
2018-04-25T16:01:58.208Z,3.37
2018-04-25T16:06:00.895Z,7.03
2018-04-25T16:10:04.303Z,3.50
2018-04-25T16:14:07.768Z,5.70
2018-04-25T16:18:10.412Z,4.97
2018-04-25T16:22:13.012Z,7.37
2018-04-25T16:26:15.672Z,6.43
2018-04-25T16:30:18.335Z,5.13
2018-04-25T16:34:21.006Z,7.23
2018-04-25T16:38:23.659Z,4.30
2018-04-25T16:42:26.263Z,7.00
2018-04-25T16:46:28.910Z,6.70
2018-04-25T16:50:32.327Z,6.07
2018-04-25T16:54:34.972Z,5.90
2018-04-25T16:58:37.688Z,5.90
2018-04-25T17:02:41.064Z,9.63
2018-04-25T17:06:43.777Z,7.03
2018-04-25T17:10:46.429Z,7.10
2018-04-25T17:14:49.864Z,6.87
2018-04-25T17:18:52.488Z,4.27
2018-04-25T17:22:55.178Z,5.77
2018-04-25T17:26:58.559Z,3.67
2018-04-25T17:31:01.252Z,2.47
2018-04-25T17:35:04.662Z,3.23
2018-04-25T17:39:07.260Z,2.30
2018-04-25T17:43:10.668Z,3.57
2018-04-25T17:47:13.316Z,3.70
2018-04-25T17:51:15.960Z,4.13
2018-04-25T17:55:19.500Z,2.57
2018-04-25T17:59:22.973Z,3.70
2018-04-25T18:03:25.679Z,3.70
2018-04-25T18:07:28.327Z,2.80
2018-04-25T18:11:31.742Z,3.33
2018-04-25T18:15:34.394Z,3.57
2018-04-25T18:19:37.004Z,3.00
2018-04-25T18:23:40.408Z,2.30
2018-04-25T18:27:43.847Z,3.07
2018-04-25T18:31:46.493Z,3.00
2018-04-25T18:35:49.144Z,4.50
2018-04-25T18:39:51.821Z,3.90
2018-04-25T18:43:54.487Z,3.83
2018-04-25T18:47:57.129Z,3.47
2018-04-25T18:51:59.835Z,3.70
2018-04-25T18:56:02.434Z,6.47
2018-04-25T19:00:05.840Z,3.93
2018-04-25T19:04:09.248Z,3.13
2018-04-25T19:08:12.647Z,4.87
2018-04-25T19:12:15.292Z,5.03
2018-04-25T19:16:17.897Z,5.67
2018-04-25T19:20:21.216Z,3.73
2018-04-25T19:24:23.856Z,4.00
2018-04-25T19:28:26.501Z,3.57
2018-04-25T19:32:29.148Z,3.97
2018-04-25T19:36:31.756Z,3.13
2018-04-25T19:40:34.403Z,4.70
2018-04-25T19:44:37.034Z,3.70
2018-04-25T19:48:39.693Z,3.77
2018-04-25T19:52:42.391Z,3.87
2018-04-25T19:56:45.050Z,4.17
2018-04-25T20:00:47.688Z,5.63
2018-04-25T20:04:50.331Z,5.50
2018-04-25T20:08:52.968Z,4.63
2018-04-25T20:12:55.615Z,5.87
2018-04-25T20:16:58.284Z,4.73
2018-04-25T20:21:00.926Z,4.77
2018-04-25T20:25:03.576Z,5.47
2018-04-25T20:29:06.226Z,5.90
2018-04-25T20:33:08.874Z,4.70
2018-04-25T20:37:11.565Z,4.47
2018-04-25T20:41:14.249Z,4.77
2018-04-25T20:45:16.883Z,7.07
2018-04-25T20:49:19.529Z,5.13
2018-04-25T20:53:22.181Z,5.50
2018-04-25T20:57:24.840Z,7.83
2018-04-25T21:01:27.476Z,5.27
2018-04-25T21:05:30.116Z,7.37
2018-04-25T21:09:32.750Z,6.47
2018-04-25T21:13:35.395Z,21.40
2018-04-25T21:17:38.013Z,13.53
2018-04-25T21:21:40.656Z,10.33
2018-04-25T21:25:43.343Z,8.93
2018-04-25T21:29:45.985Z,6.27
2018-04-25T21:33:48.621Z,9.27
2018-04-25T21:37:51.222Z,7.80
2018-04-25T21:41:53.856Z,9.67
2018-04-25T21:45:56.493Z,6.97
2018-04-25T21:49:59.135Z,8.43
2018-04-25T21:54:01.780Z,7.90
2018-04-25T21:58:04.455Z,8.07
2018-04-25T22:02:07.058Z,7.87
2018-04-25T22:06:09.703Z,10.07
2018-04-25T22:10:12.442Z,10.07
2018-04-25T22:14:15.848Z,8.43
2018-04-25T22:18:19.213Z,9.03
2018-04-25T22:22:21.859Z,11.30
2018-04-25T22:26:24.521Z,11.87
2018-04-25T22:30:27.160Z,8.23
2018-04-25T22:34:29.798Z,10.23
2018-04-25T22:38:32.472Z,10.90
2018-04-25T22:42:35.119Z,10.73
2018-04-25T22:46:37.768Z,10.17
2018-04-25T22:50:40.408Z,10.47
2018-04-25T22:54:43.047Z,10.40
2018-04-25T22:58:46.479Z,11.43
2018-04-25T23:02:49.119Z,7.87
2018-04-25T23:06:51.763Z,10.73
2018-04-25T23:10:54.413Z,10.20
2018-04-25T23:14:57.056Z,8.10
2018-04-25T23:18:59.658Z,7.83
2018-04-25T23:23:02.356Z,12.67
2018-04-25T23:27:05.102Z,8.03
2018-04-25T23:31:07.796Z,5.03
2018-04-25T23:35:10.504Z,7.40
2018-04-25T23:39:13.104Z,9.60
2018-04-25T23:43:15.755Z,6.17
2018-04-25T23:47:18.390Z,8.37
2018-04-25T23:51:21.028Z,9.57
2018-04-25T23:55:23.689Z,7.67
2018-04-25T23:59:26.342Z,6.73
